SHT22A EGLL-EGJB
Flight info
| Callsign | SHT22A |
|---|---|
| Flight time | 0h 39m |
| Altitude | 24000 |
| Route | GASGU N514 EVTES N621 SAM N63 LELNA |
| Aircraft | A319/M-SDE3FGHIRWY/LB1 |
Departure
| Time | 2026-04-26 17:01 |
|---|---|
| Airport | London Heathrow Airport (EGLL) |
Arrival
| Time | 2026-04-26 17:40 |
|---|---|
| Airport | Guernsey Airport (EGJB) |
| Time | Latitude | Longitude | Altitude | Speed | Heading |
|---|---|---|---|---|---|
| 2026-04-26 16:34 | 51.46931 | -0.48859 | 86 ft | 0 kts | 0° |
| 2026-04-26 16:53 | 51.46913 | -0.48859 | 89 ft | 4 kts | 360° |
| 2026-04-26 16:53 | 51.46891 | -0.48859 | 86 ft | 4 kts | 349° |
| 2026-04-26 16:54 | 51.46877 | -0.48841 | 90 ft | 4 kts | 274° |
| 2026-04-26 16:54 | 51.46876 | -0.48815 | 86 ft | 0 kts | 270° |
| 2026-04-26 16:57 | 51.46876 | -0.48807 | 90 ft | 0 kts | 90° |
| 2026-04-26 16:58 | 51.46877 | -0.48806 | 89 ft | 1 kts | 85° |
| 2026-04-26 16:58 | 51.46876 | -0.48799 | 89 ft | 3 kts | 91° |
| 2026-04-26 16:58 | 51.46861 | -0.48755 | 88 ft | 5 kts | 160° |
| 2026-04-26 16:59 | 51.46832 | -0.48750 | 86 ft | 8 kts | 178° |
| 2026-04-26 16:59 | 51.46693 | -0.48751 | 86 ft | 11 kts | 181° |
| 2026-04-26 17:00 | 51.46491 | -0.48749 | 86 ft | 11 kts | 133° |
| 2026-04-26 17:00 | 51.46481 | -0.48154 | 88 ft | 72 kts | 90° |
| 2026-04-26 17:00 | 51.46483 | -0.47024 | 88 ft | 128 kts | 90° |
| 2026-04-26 17:01 | 51.46482 | -0.45363 | 376 ft | 153 kts | 90° |
| 2026-04-26 17:01 | 51.46489 | -0.43660 | 1052 ft | 154 kts | 89° |
| 2026-04-26 17:01 | 51.46467 | -0.41885 | 1580 ft | 168 kts | 101° |
| 2026-04-26 17:01 | 51.45854 | -0.40164 | 1925 ft | 191 kts | 129° |
| 2026-04-26 17:02 | 51.44998 | -0.38349 | 2297 ft | 218 kts | 125° |
| 2026-04-26 17:02 | 51.44080 | -0.36239 | 2890 ft | 243 kts | 124° |
| 2026-04-26 17:02 | 51.42909 | -0.34122 | 3660 ft | 259 kts | 141° |
| 2026-04-26 17:02 | 51.41282 | -0.32890 | 3931 ft | 261 kts | 167° |
| 2026-04-26 17:03 | 51.39461 | -0.32924 | 4002 ft | 262 kts | 193° |
| 2026-04-26 17:03 | 51.37798 | -0.34188 | 4010 ft | 264 kts | 217° |
| 2026-04-26 17:03 | 51.36441 | -0.36124 | 4014 ft | 265 kts | 222° |
| 2026-04-26 17:03 | 51.35539 | -0.37444 | 4013 ft | 265 kts | 221° |
| 2026-04-26 17:04 | 51.33795 | -0.39986 | 4247 ft | 270 kts | 221° |
| 2026-04-26 17:04 | 51.32417 | -0.41984 | 4624 ft | 268 kts | 220° |
| 2026-04-26 17:04 | 51.31107 | -0.44109 | 4994 ft | 273 kts | 231° |
| 2026-04-26 17:04 | 51.30164 | -0.46740 | 5240 ft | 275 kts | 248° |
| 2026-04-26 17:05 | 51.29612 | -0.49682 | 5483 ft | 275 kts | 254° |
| 2026-04-26 17:05 | 51.29090 | -0.52641 | 5746 ft | 274 kts | 253° |
| 2026-04-26 17:05 | 51.28564 | -0.55559 | 5956 ft | 275 kts | 253° |
| 2026-04-26 17:05 | 51.28026 | -0.58494 | 6004 ft | 274 kts | 252° |
| 2026-04-26 17:06 | 51.27474 | -0.61372 | 6009 ft | 274 kts | 252° |
| 2026-04-26 17:06 | 51.26904 | -0.64277 | 6009 ft | 274 kts | 251° |
| 2026-04-26 17:06 | 51.26327 | -0.67204 | 6009 ft | 274 kts | 252° |
| 2026-04-26 17:06 | 51.25752 | -0.70121 | 6009 ft | 274 kts | 251° |
| 2026-04-26 17:07 | 51.25175 | -0.73058 | 6012 ft | 274 kts | 252° |
| 2026-04-26 17:07 | 51.24604 | -0.75968 | 6011 ft | 274 kts | 251° |
| 2026-04-26 17:07 | 51.24020 | -0.78948 | 6006 ft | 281 kts | 252° |
| 2026-04-26 17:07 | 51.23451 | -0.81860 | 6011 ft | 275 kts | 252° |
| 2026-04-26 17:08 | 51.22861 | -0.84861 | 6009 ft | 274 kts | 252° |
| 2026-04-26 17:08 | 51.22309 | -0.87665 | 6009 ft | 274 kts | 251° |
| 2026-04-26 17:08 | 51.21733 | -0.90576 | 6010 ft | 274 kts | 252° |
| 2026-04-26 17:08 | 51.21161 | -0.93472 | 6010 ft | 273 kts | 251° |
| 2026-04-26 17:09 | 51.20480 | -0.96175 | 6010 ft | 273 kts | 240° |
| 2026-04-26 17:09 | 51.19786 | -0.97834 | 6015 ft | 272 kts | 231° |
| 2026-04-26 17:09 | 51.18209 | -1.01047 | 7016 ft | 274 kts | 232° |
| 2026-04-26 17:09 | 51.17037 | -1.03450 | 8021 ft | 275 kts | 232° |
| 2026-04-26 17:10 | 51.15854 | -1.05884 | 9029 ft | 278 kts | 232° |
| 2026-04-26 17:10 | 51.14654 | -1.08354 | 10048 ft | 281 kts | 232° |
| 2026-04-26 17:10 | 51.13429 | -1.10863 | 10611 ft | 299 kts | 232° |
| 2026-04-26 17:10 | 51.12128 | -1.13522 | 11364 ft | 306 kts | 232° |
| 2026-04-26 17:11 | 51.10803 | -1.16230 | 12230 ft | 311 kts | 232° |
| 2026-04-26 17:11 | 51.09468 | -1.18958 | 12980 ft | 320 kts | 232° |
| 2026-04-26 17:11 | 51.07909 | -1.21625 | 13426 ft | 336 kts | 221° |
| 2026-04-26 17:11 | 51.06136 | -1.23666 | 14110 ft | 341 kts | 213° |
| 2026-04-26 17:12 | 51.02273 | -1.27566 | 15465 ft | 348 kts | 214° |
| 2026-04-26 17:12 | 51.00223 | -1.29671 | 16165 ft | 351 kts | 214° |
| 2026-04-26 17:13 | 50.96072 | -1.33937 | 17547 ft | 359 kts | 214° |
| 2026-04-26 17:13 | 50.93866 | -1.35869 | 17921 ft | 363 kts | 210° |
| 2026-04-26 17:13 | 50.89349 | -1.39486 | 18011 ft | 364 kts | 209° |
| 2026-04-26 17:14 | 50.87076 | -1.41285 | 18015 ft | 363 kts | 209° |
| 2026-04-26 17:14 | 50.82561 | -1.44860 | 18011 ft | 362 kts | 209° |
| 2026-04-26 17:14 | 50.80335 | -1.46627 | 18011 ft | 362 kts | 209° |
| 2026-04-26 17:15 | 50.75838 | -1.50205 | 18010 ft | 362 kts | 209° |
| 2026-04-26 17:15 | 50.73593 | -1.51991 | 18011 ft | 362 kts | 209° |
| 2026-04-26 17:15 | 50.71341 | -1.53776 | 18010 ft | 362 kts | 209° |
| 2026-04-26 17:16 | 50.69095 | -1.55554 | 18014 ft | 362 kts | 209° |
| 2026-04-26 17:16 | 50.66839 | -1.57335 | 18012 ft | 362 kts | 209° |
| 2026-04-26 17:16 | 50.64589 | -1.59105 | 18011 ft | 362 kts | 209° |
| 2026-04-26 17:16 | 50.62329 | -1.60883 | 18006 ft | 360 kts | 209° |
| 2026-04-26 17:17 | 50.60090 | -1.62646 | 18010 ft | 360 kts | 209° |
| 2026-04-26 17:17 | 50.57852 | -1.64411 | 18007 ft | 359 kts | 209° |
| 2026-04-26 17:17 | 50.55617 | -1.66170 | 18010 ft | 360 kts | 209° |
| 2026-04-26 17:17 | 50.53379 | -1.67930 | 18008 ft | 359 kts | 209° |
| 2026-04-26 17:18 | 50.51133 | -1.69693 | 18008 ft | 360 kts | 209° |
| 2026-04-26 17:18 | 50.48921 | -1.71429 | 18001 ft | 360 kts | 209° |
| 2026-04-26 17:18 | 50.46678 | -1.73184 | 18004 ft | 360 kts | 209° |
| 2026-04-26 17:18 | 50.44430 | -1.74939 | 18003 ft | 360 kts | 209° |
| 2026-04-26 17:19 | 50.39942 | -1.78437 | 17992 ft | 360 kts | 209° |
| 2026-04-26 17:19 | 50.38451 | -1.79602 | 18000 ft | 360 kts | 209° |
| 2026-04-26 17:19 | 50.35495 | -1.81914 | 17691 ft | 358 kts | 209° |
| 2026-04-26 17:20 | 50.33995 | -1.83082 | 17520 ft | 357 kts | 209° |
| 2026-04-26 17:20 | 50.32523 | -1.84227 | 17344 ft | 357 kts | 209° |
| 2026-04-26 17:20 | 50.29549 | -1.86543 | 16986 ft | 356 kts | 208° |
| 2026-04-26 17:20 | 50.27324 | -1.88269 | 16731 ft | 355 kts | 208° |
| 2026-04-26 17:21 | 50.25142 | -1.89956 | 16485 ft | 354 kts | 208° |
| 2026-04-26 17:21 | 50.22913 | -1.91673 | 16224 ft | 352 kts | 208° |
| 2026-04-26 17:21 | 50.20709 | -1.93370 | 15963 ft | 351 kts | 208° |
| 2026-04-26 17:21 | 50.18522 | -1.95058 | 15718 ft | 350 kts | 208° |
| 2026-04-26 17:22 | 50.16363 | -1.96726 | 15429 ft | 350 kts | 208° |
| 2026-04-26 17:22 | 50.14185 | -1.98400 | 15191 ft | 344 kts | 207° |
| 2026-04-26 17:22 | 50.12089 | -2.00011 | 15110 ft | 327 kts | 208° |
| 2026-04-26 17:22 | 50.10075 | -2.01562 | 14880 ft | 317 kts | 208° |
| 2026-04-26 17:23 | 50.08121 | -2.03068 | 14591 ft | 312 kts | 207° |
| 2026-04-26 17:23 | 50.06182 | -2.04560 | 14307 ft | 309 kts | 207° |
| 2026-04-26 17:23 | 50.04253 | -2.06037 | 14021 ft | 307 kts | 207° |
| 2026-04-26 17:23 | 50.02339 | -2.07505 | 13704 ft | 306 kts | 207° |
| 2026-04-26 17:24 | 50.00433 | -2.08971 | 13379 ft | 305 kts | 207° |
| 2026-04-26 17:24 | 49.98614 | -2.10663 | 13061 ft | 303 kts | 217° |
| 2026-04-26 17:24 | 49.97034 | -2.12795 | 12741 ft | 297 kts | 226° |
| 2026-04-26 17:24 | 49.95677 | -2.15165 | 12441 ft | 292 kts | 229° |
| 2026-04-26 17:25 | 49.94334 | -2.17525 | 12126 ft | 288 kts | 228° |
| 2026-04-26 17:25 | 49.93010 | -2.19841 | 11821 ft | 284 kts | 228° |
| 2026-04-26 17:25 | 49.91721 | -2.22089 | 11525 ft | 281 kts | 228° |
| 2026-04-26 17:25 | 49.90430 | -2.24340 | 11232 ft | 277 kts | 228° |
| 2026-04-26 17:26 | 49.89149 | -2.26575 | 10936 ft | 274 kts | 228° |
| 2026-04-26 17:26 | 49.87884 | -2.28780 | 10645 ft | 272 kts | 228° |
| 2026-04-26 17:26 | 49.86624 | -2.30972 | 10359 ft | 271 kts | 228° |
| 2026-04-26 17:26 | 49.85369 | -2.33152 | 10065 ft | 271 kts | 228° |
| 2026-04-26 17:27 | 49.84117 | -2.35328 | 9747 ft | 270 kts | 228° |
| 2026-04-26 17:27 | 49.82869 | -2.37493 | 9432 ft | 268 kts | 228° |
| 2026-04-26 17:27 | 49.81625 | -2.39648 | 9124 ft | 267 kts | 229° |
| 2026-04-26 17:27 | 49.80396 | -2.41777 | 8810 ft | 265 kts | 228° |
| 2026-04-26 17:28 | 49.79176 | -2.43891 | 8501 ft | 263 kts | 229° |
| 2026-04-26 17:28 | 49.77955 | -2.46006 | 8197 ft | 261 kts | 229° |
| 2026-04-26 17:28 | 49.76748 | -2.48097 | 7896 ft | 260 kts | 229° |
| 2026-04-26 17:28 | 49.75548 | -2.50172 | 7597 ft | 258 kts | 229° |
| 2026-04-26 17:29 | 49.74343 | -2.52248 | 7298 ft | 257 kts | 229° |
| 2026-04-26 17:29 | 49.73553 | -2.53611 | 7104 ft | 256 kts | 229° |
| 2026-04-26 17:29 | 49.71981 | -2.56321 | 6723 ft | 254 kts | 230° |
| 2026-04-26 17:29 | 49.70801 | -2.58358 | 6415 ft | 253 kts | 230° |
| 2026-04-26 17:30 | 49.69611 | -2.60349 | 6105 ft | 253 kts | 225° |
| 2026-04-26 17:30 | 49.68351 | -2.62102 | 5812 ft | 251 kts | 222° |
| 2026-04-26 17:30 | 49.67015 | -2.63844 | 5507 ft | 250 kts | 221° |
| 2026-04-26 17:30 | 49.65674 | -2.65555 | 5209 ft | 249 kts | 220° |
| 2026-04-26 17:31 | 49.64344 | -2.67247 | 4911 ft | 247 kts | 221° |
| 2026-04-26 17:31 | 49.63019 | -2.68940 | 4598 ft | 245 kts | 220° |
| 2026-04-26 17:31 | 49.61724 | -2.70602 | 4297 ft | 244 kts | 221° |
| 2026-04-26 17:31 | 49.60434 | -2.72259 | 3997 ft | 242 kts | 221° |
| 2026-04-26 17:32 | 49.59144 | -2.73921 | 3700 ft | 241 kts | 221° |
| 2026-04-26 17:32 | 49.57859 | -2.75578 | 3396 ft | 239 kts | 220° |
| 2026-04-26 17:32 | 49.56587 | -2.77217 | 3090 ft | 238 kts | 220° |
| 2026-04-26 17:32 | 49.55327 | -2.78839 | 2791 ft | 233 kts | 220° |
| 2026-04-26 17:33 | 49.54094 | -2.80426 | 2485 ft | 228 kts | 219° |
| 2026-04-26 17:33 | 49.52901 | -2.81957 | 2248 ft | 220 kts | 219° |
| 2026-04-26 17:33 | 49.51750 | -2.83435 | 2219 ft | 206 kts | 219° |
| 2026-04-26 17:34 | 49.49594 | -2.86194 | 2223 ft | 199 kts | 219° |
| 2026-04-26 17:34 | 49.48541 | -2.87538 | 2132 ft | 199 kts | 219° |
| 2026-04-26 17:34 | 49.47484 | -2.88885 | 2087 ft | 191 kts | 219° |
| 2026-04-26 17:34 | 49.46503 | -2.90139 | 2024 ft | 175 kts | 219° |
| 2026-04-26 17:35 | 49.45476 | -2.91056 | 2020 ft | 170 kts | 193° |
| 2026-04-26 17:35 | 49.44326 | -2.91063 | 2020 ft | 165 kts | 163° |
| 2026-04-26 17:35 | 49.43349 | -2.90206 | 2018 ft | 162 kts | 134° |
| 2026-04-26 17:35 | 49.42785 | -2.88774 | 2017 ft | 161 kts | 106° |
| 2026-04-26 17:36 | 49.42716 | -2.87006 | 2020 ft | 162 kts | 87° |
| 2026-04-26 17:36 | 49.42768 | -2.85291 | 2016 ft | 162 kts | 87° |
| 2026-04-26 17:36 | 49.42821 | -2.83556 | 2026 ft | 160 kts | 87° |
| 2026-04-26 17:36 | 49.42872 | -2.81839 | 2022 ft | 161 kts | 87° |
| 2026-04-26 17:37 | 49.42923 | -2.80117 | 2037 ft | 161 kts | 87° |
| 2026-04-26 17:37 | 49.42973 | -2.78402 | 2037 ft | 161 kts | 87° |
| 2026-04-26 17:37 | 49.43024 | -2.76673 | 2036 ft | 162 kts | 87° |
| 2026-04-26 17:38 | 49.43124 | -2.73240 | 1833 ft | 152 kts | 87° |
| 2026-04-26 17:38 | 49.43169 | -2.71683 | 1658 ft | 142 kts | 87° |
| 2026-04-26 17:38 | 49.43212 | -2.70207 | 1483 ft | 138 kts | 87° |
| 2026-04-26 17:38 | 49.43254 | -2.68745 | 1299 ft | 136 kts | 86° |
| 2026-04-26 17:39 | 49.43295 | -2.67298 | 1115 ft | 134 kts | 87° |
| 2026-04-26 17:39 | 49.43336 | -2.65876 | 930 ft | 135 kts | 86° |
| 2026-04-26 17:39 | 49.43376 | -2.64447 | 741 ft | 133 kts | 85° |
| 2026-04-26 17:39 | 49.43416 | -2.63029 | 562 ft | 132 kts | 86° |
| 2026-04-26 17:40 | 49.43456 | -2.61608 | 383 ft | 133 kts | 85° |
| 2026-04-26 17:40 | 49.43469 | -2.61130 | 317 ft | 128 kts | 86° |
| 2026-04-26 17:40 | 49.43516 | -2.59668 | 329 ft | 31 kts | 88° |
| 2026-04-26 17:40 | 49.43519 | -2.59456 | 334 ft | 18 kts | 85° |
| 2026-04-26 17:41 | 49.43524 | -2.59274 | 335 ft | 13 kts | 91° |
| 2026-04-26 17:41 | 49.43467 | -2.59200 | 334 ft | 6 kts | 188° |
| 2026-04-26 17:41 | 49.43409 | -2.59195 | 334 ft | 10 kts | 177° |
| 2026-04-26 17:41 | 49.43373 | -2.59282 | 335 ft | 12 kts | 266° |
| 2026-04-26 17:42 | 49.43366 | -2.59443 | 333 ft | 18 kts | 267° |
| 2026-04-26 17:42 | 49.43362 | -2.59591 | 330 ft | 12 kts | 267° |
| 2026-04-26 17:42 | 49.43361 | -2.59642 | 330 ft | 2 kts | 267° |
| 2026-04-26 17:42 | 49.43359 | -2.59674 | 329 ft | 5 kts | 259° |
| 2026-04-26 17:43 | 49.43328 | -2.59689 | 329 ft | 5 kts | 175° |
| 2026-04-26 17:43 | 49.43294 | -2.59686 | 328 ft | 5 kts | 177° |
| 2026-04-26 17:43 | 49.43281 | -2.59686 | 328 ft | 0 kts | 178° |
| 2026-04-26 17:43 | 49.43270 | -2.59685 | 328 ft | 4 kts | 178° |
| 2026-04-26 17:44 | 49.43263 | -2.59685 | 328 ft | 1 kts | 178° |
| 2026-04-26 17:44 | 49.43261 | -2.59684 | 328 ft | 0 kts | 177° |